sensor_id;sensor_type;location;lat;lon;timestamp;P1;durP1;ratioP1;P2;durP2;ratioP2
39490;SDS011;25175;50.140;18.990;2022-11-12T00:02:12;59.95;;;26.75;;
39490;SDS011;25175;50.140;18.990;2022-11-12T00:05:33;61.35;;;26.70;;
39490;SDS011;25175;50.140;18.990;2022-11-12T00:08:53;65.72;;;27.35;;
39490;SDS011;25175;50.140;18.990;2022-11-12T00:12:14;57.67;;;25.92;;
39490;SDS011;25175;50.140;18.990;2022-11-12T00:15:34;60.35;;;26.90;;
39490;SDS011;25175;50.140;18.990;2022-11-12T00:18:56;65.60;;;26.98;;
39490;SDS011;25175;50.140;18.990;2022-11-12T00:22:16;64.25;;;28.50;;
39490;SDS011;25175;50.140;18.990;2022-11-12T00:25:37;70.10;;;28.30;;
39490;SDS011;25175;50.140;18.990;2022-11-12T00:28:58;63.17;;;28.38;;
39490;SDS011;25175;50.140;18.990;2022-11-12T00:32:18;60.90;;;26.75;;
39490;SDS011;25175;50.140;18.990;2022-11-12T00:35:40;65.47;;;29.10;;
39490;SDS011;25175;50.140;18.990;2022-11-12T00:39:01;65.00;;;28.30;;
39490;SDS011;25175;50.140;18.990;2022-11-12T00:42:23;56.80;;;28.15;;
39490;SDS011;25175;50.140;18.990;2022-11-12T00:45:43;59.42;;;27.08;;
39490;SDS011;25175;50.140;18.990;2022-11-12T00:49:03;62.47;;;27.35;;
39490;SDS011;25175;50.140;18.990;2022-11-12T00:52:25;61.15;;;27.85;;
39490;SDS011;25175;50.140;18.990;2022-11-12T00:55:45;66.82;;;28.50;;
39490;SDS011;25175;50.140;18.990;2022-11-12T00:59:06;61.30;;;28.27;;
39490;SDS011;25175;50.140;18.990;2022-11-12T01:02:26;62.35;;;27.40;;
39490;SDS011;25175;50.140;18.990;2022-11-12T01:05:47;62.28;;;28.63;;
39490;SDS011;25175;50.140;18.990;2022-11-12T01:09:08;58.13;;;27.45;;
39490;SDS011;25175;50.140;18.990;2022-11-12T01:12:30;63.53;;;27.02;;
39490;SDS011;25175;50.140;18.990;2022-11-12T01:15:50;53.42;;;25.23;;
39490;SDS011;25175;50.140;18.990;2022-11-12T01:19:11;54.55;;;24.48;;
39490;SDS011;25175;50.140;18.990;2022-11-12T01:22:32;54.10;;;23.42;;
39490;SDS011;25175;50.140;18.990;2022-11-12T01:25:54;50.58;;;23.67;;
39490;SDS011;25175;50.140;18.990;2022-11-12T01:29:14;48.83;;;22.50;;
39490;SDS011;25175;50.140;18.990;2022-11-12T01:32:35;51.83;;;22.83;;
39490;SDS011;25175;50.140;18.990;2022-11-12T01:35:57;48.38;;;22.67;;
39490;SDS011;25175;50.140;18.990;2022-11-12T01:39:18;53.22;;;23.08;;
39490;SDS011;25175;50.140;18.990;2022-11-12T01:42:39;54.63;;;24.02;;
39490;SDS011;25175;50.140;18.990;2022-11-12T01:46:00;49.10;;;22.85;;
39490;SDS011;25175;50.140;18.990;2022-11-12T01:49:24;54.80;;;24.45;;
39490;SDS011;25175;50.140;18.990;2022-11-12T01:52:48;60.03;;;25.63;;
39490;SDS011;25175;50.140;18.990;2022-11-12T01:56:11;57.45;;;24.27;;
39490;SDS011;25175;50.140;18.990;2022-11-12T01:59:36;56.90;;;26.08;;
39490;SDS011;25175;50.140;18.990;2022-11-12T02:03:00;67.55;;;26.80;;
39490;SDS011;25175;50.140;18.990;2022-11-12T02:06:21;69.70;;;28.23;;
39490;SDS011;25175;50.140;18.990;2022-11-12T02:09:43;59.75;;;27.83;;
39490;SDS011;25175;50.140;18.990;2022-11-12T02:13:04;58.85;;;27.48;;
39490;SDS011;25175;50.140;18.990;2022-11-12T02:16:45;67.82;;;28.55;;
39490;SDS011;25175;50.140;18.990;2022-11-12T02:20:08;66.10;;;28.13;;
39490;SDS011;25175;50.140;18.990;2022-11-12T02:23:30;60.75;;;27.70;;
39490;SDS011;25175;50.140;18.990;2022-11-12T02:26:51;60.08;;;27.55;;
39490;SDS011;25175;50.140;18.990;2022-11-12T02:30:13;60.65;;;28.88;;
39490;SDS011;25175;50.140;18.990;2022-11-12T02:33:34;63.33;;;29.75;;
39490;SDS011;25175;50.140;18.990;2022-11-12T02:36:54;64.68;;;26.88;;
39490;SDS011;25175;50.140;18.990;2022-11-12T02:40:16;57.58;;;26.02;;
39490;SDS011;25175;50.140;18.990;2022-11-12T02:43:37;63.50;;;27.30;;
39490;SDS011;25175;50.140;18.990;2022-11-12T02:46:57;58.35;;;26.55;;
39490;SDS011;25175;50.140;18.990;2022-11-12T02:50:18;57.40;;;26.65;;
39490;SDS011;25175;50.140;18.990;2022-11-12T02:53:39;59.50;;;27.13;;
39490;SDS011;25175;50.140;18.990;2022-11-12T02:57:00;62.00;;;27.65;;
39490;SDS011;25175;50.140;18.990;2022-11-12T03:00:21;57.45;;;26.70;;
39490;SDS011;25175;50.140;18.990;2022-11-12T03:03:41;60.28;;;27.73;;
39490;SDS011;25175;50.140;18.990;2022-11-12T03:07:01;59.95;;;28.00;;
39490;SDS011;25175;50.140;18.990;2022-11-12T03:10:22;59.70;;;26.50;;
39490;SDS011;25175;50.140;18.990;2022-11-12T03:13:44;61.45;;;27.52;;
39490;SDS011;25175;50.140;18.990;2022-11-12T03:17:04;62.88;;;28.55;;
39490;SDS011;25175;50.140;18.990;2022-11-12T03:20:24;65.93;;;28.63;;
39490;SDS011;25175;50.140;18.990;2022-11-12T03:23:45;64.43;;;28.23;;
39490;SDS011;25175;50.140;18.990;2022-11-12T03:27:06;63.40;;;29.17;;
39490;SDS011;25175;50.140;18.990;2022-11-12T03:30:28;62.67;;;28.25;;
39490;SDS011;25175;50.140;18.990;2022-11-12T03:33:51;68.65;;;28.52;;
39490;SDS011;25175;50.140;18.990;2022-11-12T03:37:11;59.30;;;27.58;;
39490;SDS011;25175;50.140;18.990;2022-11-12T03:40:32;66.15;;;25.83;;
39490;SDS011;25175;50.140;18.990;2022-11-12T03:43:53;57.75;;;25.65;;
39490;SDS011;25175;50.140;18.990;2022-11-12T03:47:15;59.10;;;25.65;;
39490;SDS011;25175;50.140;18.990;2022-11-12T03:50:35;52.65;;;24.48;;
39490;SDS011;25175;50.140;18.990;2022-11-12T03:53:56;51.50;;;25.08;;
39490;SDS011;25175;50.140;18.990;2022-11-12T03:57:16;57.63;;;25.15;;
39490;SDS011;25175;50.140;18.990;2022-11-12T04:00:37;53.38;;;25.00;;
39490;SDS011;25175;50.140;18.990;2022-11-12T04:03:59;58.38;;;25.52;;
39490;SDS011;25175;50.140;18.990;2022-11-12T04:07:19;53.35;;;26.13;;
39490;SDS011;25175;50.140;18.990;2022-11-12T04:10:57;50.20;;;25.27;;
39490;SDS011;25175;50.140;18.990;2022-11-12T04:14:18;59.20;;;25.30;;
39490;SDS011;25175;50.140;18.990;2022-11-12T04:17:39;50.65;;;24.50;;
39490;SDS011;25175;50.140;18.990;2022-11-12T04:21:19;54.65;;;23.52;;
39490;SDS011;25175;50.140;18.990;2022-11-12T04:24:57;52.88;;;25.40;;
39490;SDS011;25175;50.140;18.990;2022-11-12T04:28:35;54.38;;;24.80;;
39490;SDS011;25175;50.140;18.990;2022-11-12T04:31:55;52.13;;;25.45;;
39490;SDS011;25175;50.140;18.990;2022-11-12T04:35:15;51.70;;;25.05;;
39490;SDS011;25175;50.140;18.990;2022-11-12T04:38:38;55.33;;;25.10;;
39490;SDS011;25175;50.140;18.990;2022-11-12T04:41:58;59.13;;;25.58;;
39490;SDS011;25175;50.140;18.990;2022-11-12T04:45:37;54.75;;;25.05;;
39490;SDS011;25175;50.140;18.990;2022-11-12T04:48:59;54.70;;;25.52;;
39490;SDS011;25175;50.140;18.990;2022-11-12T04:52:20;48.50;;;23.75;;
39490;SDS011;25175;50.140;18.990;2022-11-12T04:55:42;55.63;;;24.55;;
39490;SDS011;25175;50.140;18.990;2022-11-12T04:59:02;55.70;;;24.55;;
39490;SDS011;25175;50.140;18.990;2022-11-12T05:02:23;56.38;;;25.45;;
39490;SDS011;25175;50.140;18.990;2022-11-12T05:05:43;59.15;;;28.55;;
39490;SDS011;25175;50.140;18.990;2022-11-12T05:09:04;72.72;;;31.13;;
39490;SDS011;25175;50.140;18.990;2022-11-12T05:12:25;59.65;;;28.45;;
39490;SDS011;25175;50.140;18.990;2022-11-12T05:15:45;61.33;;;30.55;;
39490;SDS011;25175;50.140;18.990;2022-11-12T05:19:06;60.83;;;28.60;;
39490;SDS011;25175;50.140;18.990;2022-11-12T05:22:26;55.65;;;26.30;;
39490;SDS011;25175;50.140;18.990;2022-11-12T05:25:46;52.35;;;25.52;;
39490;SDS011;25175;50.140;18.990;2022-11-12T05:29:08;53.92;;;24.58;;
39490;SDS011;25175;50.140;18.990;2022-11-12T05:32:28;54.17;;;24.27;;
39490;SDS011;25175;50.140;18.990;2022-11-12T05:35:49;48.95;;;23.08;;
39490;SDS011;25175;50.140;18.990;2022-11-12T05:39:10;45.17;;;21.50;;
39490;SDS011;25175;50.140;18.990;2022-11-12T05:42:30;43.80;;;21.50;;
39490;SDS011;25175;50.140;18.990;2022-11-12T05:45:52;42.80;;;21.23;;
39490;SDS011;25175;50.140;18.990;2022-11-12T05:49:13;44.50;;;21.23;;
39490;SDS011;25175;50.140;18.990;2022-11-12T05:52:33;57.25;;;23.23;;
39490;SDS011;25175;50.140;18.990;2022-11-12T05:55:59;67.13;;;31.75;;
39490;SDS011;25175;50.140;18.990;2022-11-12T05:59:20;59.80;;;28.30;;
39490;SDS011;25175;50.140;18.990;2022-11-12T06:02:42;61.63;;;29.73;;
39490;SDS011;25175;50.140;18.990;2022-11-12T06:06:03;62.92;;;29.95;;
39490;SDS011;25175;50.140;18.990;2022-11-12T06:09:25;67.10;;;31.17;;
39490;SDS011;25175;50.140;18.990;2022-11-12T06:12:46;74.65;;;34.97;;
39490;SDS011;25175;50.140;18.990;2022-11-12T06:16:06;70.05;;;32.38;;
39490;SDS011;25175;50.140;18.990;2022-11-12T06:19:28;63.55;;;30.95;;
39490;SDS011;25175;50.140;18.990;2022-11-12T06:22:49;68.65;;;32.85;;
39490;SDS011;25175;50.140;18.990;2022-11-12T06:26:09;69.78;;;30.98;;
39490;SDS011;25175;50.140;18.990;2022-11-12T06:29:30;69.00;;;31.05;;
39490;SDS011;25175;50.140;18.990;2022-11-12T06:32:51;73.28;;;31.42;;
39490;SDS011;25175;50.140;18.990;2022-11-12T06:36:14;68.80;;;32.35;;
39490;SDS011;25175;50.140;18.990;2022-11-12T06:39:36;82.80;;;37.55;;
39490;SDS011;25175;50.140;18.990;2022-11-12T06:42:56;72.47;;;35.35;;
39490;SDS011;25175;50.140;18.990;2022-11-12T06:46:17;70.13;;;35.90;;
39490;SDS011;25175;50.140;18.990;2022-11-12T06:49:38;71.80;;;34.25;;
39490;SDS011;25175;50.140;18.990;2022-11-12T06:53:00;68.78;;;33.80;;
39490;SDS011;25175;50.140;18.990;2022-11-12T06:56:20;66.70;;;32.33;;
39490;SDS011;25175;50.140;18.990;2022-11-12T06:59:40;64.32;;;29.88;;
39490;SDS011;25175;50.140;18.990;2022-11-12T07:03:04;60.25;;;29.58;;
39490;SDS011;25175;50.140;18.990;2022-11-12T07:06:25;61.53;;;28.40;;
39490;SDS011;25175;50.140;18.990;2022-11-12T07:09:47;62.15;;;26.98;;
39490;SDS011;25175;50.140;18.990;2022-11-12T07:13:07;63.08;;;28.02;;
39490;SDS011;25175;50.140;18.990;2022-11-12T07:16:28;68.72;;;30.85;;
39490;SDS011;25175;50.140;18.990;2022-11-12T07:19:48;64.35;;;30.73;;
39490;SDS011;25175;50.140;18.990;2022-11-12T07:23:09;66.47;;;28.10;;
39490;SDS011;25175;50.140;18.990;2022-11-12T07:26:30;74.15;;;32.70;;
39490;SDS011;25175;50.140;18.990;2022-11-12T07:29:51;83.10;;;37.53;;
39490;SDS011;25175;50.140;18.990;2022-11-12T07:33:12;71.95;;;34.10;;
39490;SDS011;25175;50.140;18.990;2022-11-12T07:36:33;67.35;;;29.80;;
39490;SDS011;25175;50.140;18.990;2022-11-12T07:39:54;68.63;;;28.85;;
39490;SDS011;25175;50.140;18.990;2022-11-12T07:43:16;64.85;;;28.67;;
39490;SDS011;25175;50.140;18.990;2022-11-12T07:46:36;67.63;;;29.75;;
39490;SDS011;25175;50.140;18.990;2022-11-12T07:49:56;70.45;;;28.52;;
39490;SDS011;25175;50.140;18.990;2022-11-12T07:53:18;78.95;;;29.73;;
39490;SDS011;25175;50.140;18.990;2022-11-12T07:56:38;87.55;;;33.70;;
39490;SDS011;25175;50.140;18.990;2022-11-12T08:00:00;81.55;;;31.52;;
39490;SDS011;25175;50.140;18.990;2022-11-12T08:03:22;74.20;;;28.98;;
39490;SDS011;25175;50.140;18.990;2022-11-12T08:06:42;72.53;;;27.10;;
39490;SDS011;25175;50.140;18.990;2022-11-12T08:10:03;72.40;;;26.75;;
39490;SDS011;25175;50.140;18.990;2022-11-12T08:13:24;77.32;;;29.27;;
39490;SDS011;25175;50.140;18.990;2022-11-12T08:16:46;67.00;;;26.33;;
39490;SDS011;25175;50.140;18.990;2022-11-12T08:20:07;74.57;;;26.77;;
39490;SDS011;25175;50.140;18.990;2022-11-12T08:23:29;63.55;;;25.98;;
39490;SDS011;25175;50.140;18.990;2022-11-12T08:26:50;51.88;;;23.00;;
39490;SDS011;25175;50.140;18.990;2022-11-12T08:30:11;50.30;;;22.63;;
39490;SDS011;25175;50.140;18.990;2022-11-12T08:33:34;48.80;;;22.10;;
39490;SDS011;25175;50.140;18.990;2022-11-12T08:36:54;54.47;;;22.30;;
39490;SDS011;25175;50.140;18.990;2022-11-12T08:40:15;59.88;;;21.42;;
39490;SDS011;25175;50.140;18.990;2022-11-12T08:43:36;48.72;;;21.40;;
39490;SDS011;25175;50.140;18.990;2022-11-12T08:46:57;57.60;;;20.90;;
39490;SDS011;25175;50.140;18.990;2022-11-12T08:50:19;53.78;;;21.45;;
39490;SDS011;25175;50.140;18.990;2022-11-12T08:53:40;51.25;;;21.00;;
39490;SDS011;25175;50.140;18.990;2022-11-12T08:57:01;46.30;;;21.13;;
39490;SDS011;25175;50.140;18.990;2022-11-12T09:00:21;52.95;;;21.60;;
39490;SDS011;25175;50.140;18.990;2022-11-12T09:03:42;48.30;;;21.00;;
39490;SDS011;25175;50.140;18.990;2022-11-12T09:07:04;42.08;;;20.55;;
39490;SDS011;25175;50.140;18.990;2022-11-12T09:10:24;46.15;;;20.17;;
39490;SDS011;25175;50.140;18.990;2022-11-12T09:13:45;48.95;;;20.00;;
39490;SDS011;25175;50.140;18.990;2022-11-12T09:17:06;37.90;;;17.63;;
39490;SDS011;25175;50.140;18.990;2022-11-12T09:20:27;42.38;;;17.52;;
39490;SDS011;25175;50.140;18.990;2022-11-12T09:23:49;39.40;;;17.45;;
39490;SDS011;25175;50.140;18.990;2022-11-12T09:27:10;37.20;;;15.00;;
39490;SDS011;25175;50.140;18.990;2022-11-12T09:30:30;35.90;;;15.77;;
39490;SDS011;25175;50.140;18.990;2022-11-12T09:33:50;30.48;;;14.82;;
39490;SDS011;25175;50.140;18.990;2022-11-12T09:37:10;32.17;;;14.32;;
39490;SDS011;25175;50.140;18.990;2022-11-12T09:40:38;34.58;;;15.55;;
39490;SDS011;25175;50.140;18.990;2022-11-12T09:44:08;37.70;;;14.55;;
39490;SDS011;25175;50.140;18.990;2022-11-12T09:47:31;33.20;;;15.32;;
39490;SDS011;25175;50.140;18.990;2022-11-12T09:50:55;34.88;;;15.80;;
39490;SDS011;25175;50.140;18.990;2022-11-12T09:54:21;35.35;;;14.68;;
39490;SDS011;25175;50.140;18.990;2022-11-12T09:57:44;36.00;;;15.52;;
39490;SDS011;25175;50.140;18.990;2022-11-12T10:01:06;36.90;;;15.80;;
39490;SDS011;25175;50.140;18.990;2022-11-12T10:04:39;42.33;;;16.58;;
39490;SDS011;25175;50.140;18.990;2022-11-12T10:08:15;30.00;;;12.80;;
39490;SDS011;25175;50.140;18.990;2022-11-12T10:11:56;28.88;;;11.95;;
39490;SDS011;25175;50.140;18.990;2022-11-12T10:15:48;31.35;;;12.48;;
39490;SDS011;25175;50.140;18.990;2022-11-12T10:19:41;40.47;;;16.02;;
39490;SDS011;25175;50.140;18.990;2022-11-12T10:23:14;38.25;;;14.05;;
39490;SDS011;25175;50.140;18.990;2022-11-12T10:26:38;27.88;;;11.07;;
39490;SDS011;25175;50.140;18.990;2022-11-12T10:30:00;30.95;;;12.70;;
39490;SDS011;25175;50.140;18.990;2022-11-12T10:33:28;25.83;;;11.27;;
39490;SDS011;25175;50.140;18.990;2022-11-12T10:36:50;19.75;;;8.68;;
39490;SDS011;25175;50.140;18.990;2022-11-12T10:40:26;16.63;;;6.30;;
39490;SDS011;25175;50.140;18.990;2022-11-12T10:43:52;17.33;;;6.88;;
39490;SDS011;25175;50.140;18.990;2022-11-12T10:47:26;14.52;;;5.95;;
39490;SDS011;25175;50.140;18.990;2022-11-12T10:50:50;13.60;;;6.22;;
39490;SDS011;25175;50.140;18.990;2022-11-12T10:54:18;16.05;;;6.07;;
39490;SDS011;25175;50.140;18.990;2022-11-12T10:57:45;14.30;;;6.53;;
39490;SDS011;25175;50.140;18.990;2022-11-12T11:01:12;12.50;;;6.40;;
39490;SDS011;25175;50.140;18.990;2022-11-12T11:04:36;14.02;;;5.57;;
39490;SDS011;25175;50.140;18.990;2022-11-12T11:07:58;13.25;;;5.05;;
39490;SDS011;25175;50.140;18.990;2022-11-12T11:11:24;14.23;;;5.70;;
39490;SDS011;25175;50.140;18.990;2022-11-12T11:14:45;12.70;;;5.88;;
39490;SDS011;25175;50.140;18.990;2022-11-12T11:18:07;17.13;;;5.47;;
39490;SDS011;25175;50.140;18.990;2022-11-12T11:21:36;14.60;;;5.70;;
39490;SDS011;25175;50.140;18.990;2022-11-12T11:25:18;12.40;;;5.75;;
39490;SDS011;25175;50.140;18.990;2022-11-12T11:28:46;12.35;;;4.90;;
39490;SDS011;25175;50.140;18.990;2022-11-12T11:32:14;15.20;;;6.65;;
39490;SDS011;25175;50.140;18.990;2022-11-12T11:35:46;17.08;;;6.10;;
39490;SDS011;25175;50.140;18.990;2022-11-12T11:39:20;12.15;;;5.30;;
39490;SDS011;25175;50.140;18.990;2022-11-12T11:42:57;17.33;;;5.28;;
39490;SDS011;25175;50.140;18.990;2022-11-12T11:46:38;10.82;;;3.88;;
39490;SDS011;25175;50.140;18.990;2022-11-12T11:50:12;25.73;;;6.32;;
39490;SDS011;25175;50.140;18.990;2022-11-12T11:53:39;19.88;;;7.07;;
39490;SDS011;25175;50.140;18.990;2022-11-12T11:57:10;13.85;;;5.90;;
39490;SDS011;25175;50.140;18.990;2022-11-12T12:00:36;14.30;;;6.10;;
39490;SDS011;25175;50.140;18.990;2022-11-12T12:07:54;20.35;;;5.60;;
39490;SDS011;25175;50.140;18.990;2022-11-12T12:11:22;12.98;;;4.80;;
39490;SDS011;25175;50.140;18.990;2022-11-12T12:14:51;9.77;;;4.10;;
39490;SDS011;25175;50.140;18.990;2022-11-12T12:18:21;10.07;;;3.78;;
39490;SDS011;25175;50.140;18.990;2022-11-12T12:21:49;10.38;;;4.03;;
39490;SDS011;25175;50.140;18.990;2022-11-12T12:25:12;10.75;;;4.07;;
39490;SDS011;25175;50.140;18.990;2022-11-12T12:28:38;8.90;;;4.15;;
39490;SDS011;25175;50.140;18.990;2022-11-12T12:32:04;12.90;;;4.00;;
39490;SDS011;25175;50.140;18.990;2022-11-12T12:35:33;12.38;;;4.97;;
39490;SDS011;25175;50.140;18.990;2022-11-12T12:39:03;12.25;;;4.57;;
39490;SDS011;25175;50.140;18.990;2022-11-12T12:42:32;9.98;;;3.90;;
39490;SDS011;25175;50.140;18.990;2022-11-12T12:45:56;12.98;;;4.57;;
39490;SDS011;25175;50.140;18.990;2022-11-12T12:49:18;9.38;;;3.70;;
39490;SDS011;25175;50.140;18.990;2022-11-12T12:53:03;9.50;;;3.97;;
39490;SDS011;25175;50.140;18.990;2022-11-12T12:56:45;12.32;;;4.53;;
39490;SDS011;25175;50.140;18.990;2022-11-12T13:00:26;11.13;;;4.35;;
39490;SDS011;25175;50.140;18.990;2022-11-12T13:03:51;13.82;;;4.95;;
39490;SDS011;25175;50.140;18.990;2022-11-12T13:07:14;10.20;;;4.22;;
39490;SDS011;25175;50.140;18.990;2022-11-12T13:18:43;9.15;;;3.95;;
39490;SDS011;25175;50.140;18.990;2022-11-12T13:22:32;10.80;;;4.25;;
39490;SDS011;25175;50.140;18.990;2022-11-12T13:30:07;12.50;;;5.28;;
39490;SDS011;25175;50.140;18.990;2022-11-12T13:33:31;12.27;;;5.05;;
39490;SDS011;25175;50.140;18.990;2022-11-12T13:36:54;19.42;;;7.13;;
39490;SDS011;25175;50.140;18.990;2022-11-12T13:40:16;17.08;;;5.93;;
39490;SDS011;25175;50.140;18.990;2022-11-12T13:43:44;10.15;;;5.22;;
39490;SDS011;25175;50.140;18.990;2022-11-12T13:47:09;9.85;;;4.25;;
39490;SDS011;25175;50.140;18.990;2022-11-12T13:50:32;11.60;;;4.90;;
39490;SDS011;25175;50.140;18.990;2022-11-12T13:53:53;17.35;;;4.93;;
39490;SDS011;25175;50.140;18.990;2022-11-12T13:57:15;11.70;;;4.65;;
39490;SDS011;25175;50.140;18.990;2022-11-12T14:00:52;11.82;;;4.30;;
39490;SDS011;25175;50.140;18.990;2022-11-12T14:04:16;10.05;;;4.45;;
39490;SDS011;25175;50.140;18.990;2022-11-12T14:07:39;15.07;;;6.03;;
39490;SDS011;25175;50.140;18.990;2022-11-12T14:11:13;16.20;;;6.18;;
39490;SDS011;25175;50.140;18.990;2022-11-12T14:15:14;12.80;;;5.00;;
39490;SDS011;25175;50.140;18.990;2022-11-12T14:18:49;13.73;;;5.10;;
39490;SDS011;25175;50.140;18.990;2022-11-12T14:22:33;13.57;;;5.95;;
39490;SDS011;25175;50.140;18.990;2022-11-12T14:25:57;18.73;;;5.55;;
39490;SDS011;25175;50.140;18.990;2022-11-12T14:29:18;67.82;;;36.80;;
39490;SDS011;25175;50.140;18.990;2022-11-12T14:32:39;24.15;;;9.98;;
39490;SDS011;25175;50.140;18.990;2022-11-12T14:36:02;35.58;;;14.02;;
39490;SDS011;25175;50.140;18.990;2022-11-12T14:39:28;35.08;;;13.43;;
39490;SDS011;25175;50.140;18.990;2022-11-12T14:42:49;34.05;;;13.68;;
39490;SDS011;25175;50.140;18.990;2022-11-12T14:46:18;34.53;;;14.48;;
39490;SDS011;25175;50.140;18.990;2022-11-12T14:49:42;43.80;;;17.65;;
39490;SDS011;25175;50.140;18.990;2022-11-12T14:53:08;34.42;;;14.90;;
39490;SDS011;25175;50.140;18.990;2022-11-12T14:59:58;34.85;;;15.98;;
39490;SDS011;25175;50.140;18.990;2022-11-12T15:03:19;56.80;;;29.02;;
39490;SDS011;25175;50.140;18.990;2022-11-12T15:06:49;79.35;;;37.85;;
39490;SDS011;25175;50.140;18.990;2022-11-12T15:10:29;121.38;;;61.35;;
39490;SDS011;25175;50.140;18.990;2022-11-12T15:13:53;59.13;;;23.75;;
39490;SDS011;25175;50.140;18.990;2022-11-12T15:17:24;99.03;;;49.15;;
39490;SDS011;25175;50.140;18.990;2022-11-12T15:21:08;187.23;;;87.90;;
39490;SDS011;25175;50.140;18.990;2022-11-12T15:24:32;113.70;;;53.20;;
39490;SDS011;25175;50.140;18.990;2022-11-12T15:27:54;96.40;;;48.88;;
39490;SDS011;25175;50.140;18.990;2022-11-12T15:31:17;63.45;;;30.08;;
39490;SDS011;25175;50.140;18.990;2022-11-12T15:34:43;120.82;;;59.80;;
39490;SDS011;25175;50.140;18.990;2022-11-12T15:38:05;145.32;;;79.95;;
39490;SDS011;25175;50.140;18.990;2022-11-12T15:41:32;155.32;;;82.70;;
39490;SDS011;25175;50.140;18.990;2022-11-12T15:44:55;116.43;;;62.28;;
39490;SDS011;25175;50.140;18.990;2022-11-12T15:48:19;221.32;;;116.90;;
39490;SDS011;25175;50.140;18.990;2022-11-12T15:51:39;139.10;;;74.80;;
39490;SDS011;25175;50.140;18.990;2022-11-12T15:54:59;101.47;;;49.88;;
39490;SDS011;25175;50.140;18.990;2022-11-12T15:58:23;83.75;;;43.47;;
39490;SDS011;25175;50.140;18.990;2022-11-12T16:01:49;64.22;;;32.15;;
39490;SDS011;25175;50.140;18.990;2022-11-12T16:05:12;62.58;;;31.73;;
39490;SDS011;25175;50.140;18.990;2022-11-12T16:08:33;89.15;;;37.67;;
39490;SDS011;25175;50.140;18.990;2022-11-12T16:11:53;73.93;;;34.45;;
39490;SDS011;25175;50.140;18.990;2022-11-12T16:15:15;79.95;;;37.22;;
39490;SDS011;25175;50.140;18.990;2022-11-12T16:18:37;54.65;;;26.65;;
39490;SDS011;25175;50.140;18.990;2022-11-12T16:21:58;65.28;;;31.55;;
39490;SDS011;25175;50.140;18.990;2022-11-12T16:25:19;51.05;;;25.40;;
39490;SDS011;25175;50.140;18.990;2022-11-12T16:28:39;57.58;;;28.27;;
39490;SDS011;25175;50.140;18.990;2022-11-12T16:32:02;80.88;;;37.85;;
39490;SDS011;25175;50.140;18.990;2022-11-12T16:35:23;96.82;;;43.88;;
39490;SDS011;25175;50.140;18.990;2022-11-12T16:38:47;160.93;;;67.35;;
39490;SDS011;25175;50.140;18.990;2022-11-12T16:42:08;228.77;;;93.10;;
39490;SDS011;25175;50.140;18.990;2022-11-12T16:45:31;239.57;;;97.75;;
39490;SDS011;25175;50.140;18.990;2022-11-12T16:48:53;247.02;;;101.55;;
39490;SDS011;25175;50.140;18.990;2022-11-12T16:52:13;250.45;;;105.30;;
39490;SDS011;25175;50.140;18.990;2022-11-12T16:55:35;275.55;;;107.53;;
39490;SDS011;25175;50.140;18.990;2022-11-12T16:58:55;295.77;;;117.30;;
39490;SDS011;25175;50.140;18.990;2022-11-12T17:02:16;284.95;;;106.80;;
39490;SDS011;25175;50.140;18.990;2022-11-12T17:05:36;233.27;;;93.38;;
39490;SDS011;25175;50.140;18.990;2022-11-12T17:08:57;216.18;;;86.90;;
39490;SDS011;25175;50.140;18.990;2022-11-12T17:12:18;193.98;;;80.15;;
39490;SDS011;25175;50.140;18.990;2022-11-12T17:15:38;156.52;;;70.97;;
39490;SDS011;25175;50.140;18.990;2022-11-12T17:18:59;155.48;;;65.10;;
39490;SDS011;25175;50.140;18.990;2022-11-12T17:22:20;172.93;;;62.03;;
39490;SDS011;25175;50.140;18.990;2022-11-12T17:25:42;170.57;;;60.83;;
39490;SDS011;25175;50.140;18.990;2022-11-12T17:29:03;151.00;;;57.58;;
39490;SDS011;25175;50.140;18.990;2022-11-12T17:32:24;181.27;;;64.47;;
39490;SDS011;25175;50.140;18.990;2022-11-12T17:35:45;212.88;;;78.72;;
39490;SDS011;25175;50.140;18.990;2022-11-12T17:39:05;201.68;;;74.35;;
39490;SDS011;25175;50.140;18.990;2022-11-12T17:42:25;156.07;;;60.60;;
39490;SDS011;25175;50.140;18.990;2022-11-12T17:45:51;163.65;;;57.88;;
39490;SDS011;25175;50.140;18.990;2022-11-12T17:49:12;149.88;;;57.47;;
39490;SDS011;25175;50.140;18.990;2022-11-12T17:52:33;166.30;;;58.08;;
39490;SDS011;25175;50.140;18.990;2022-11-12T17:55:54;155.40;;;59.88;;
39490;SDS011;25175;50.140;18.990;2022-11-12T17:59:16;170.35;;;61.35;;
39490;SDS011;25175;50.140;18.990;2022-11-12T18:02:38;188.60;;;72.07;;
39490;SDS011;25175;50.140;18.990;2022-11-12T18:05:58;197.13;;;74.25;;
39490;SDS011;25175;50.140;18.990;2022-11-12T18:09:20;167.98;;;73.20;;
39490;SDS011;25175;50.140;18.990;2022-11-12T18:12:40;163.07;;;71.32;;
39490;SDS011;25175;50.140;18.990;2022-11-12T18:16:02;124.63;;;56.33;;
39490;SDS011;25175;50.140;18.990;2022-11-12T18:19:34;120.72;;;52.40;;
39490;SDS011;25175;50.140;18.990;2022-11-12T18:22:54;117.93;;;51.33;;
39490;SDS011;25175;50.140;18.990;2022-11-12T18:26:15;111.82;;;47.67;;
39490;SDS011;25175;50.140;18.990;2022-11-12T18:29:37;114.28;;;46.20;;
39490;SDS011;25175;50.140;18.990;2022-11-12T18:32:59;107.45;;;46.30;;
39490;SDS011;25175;50.140;18.990;2022-11-12T18:36:22;98.20;;;46.15;;
39490;SDS011;25175;50.140;18.990;2022-11-12T18:39:44;108.13;;;49.75;;
39490;SDS011;25175;50.140;18.990;2022-11-12T18:43:04;102.57;;;44.10;;
39490;SDS011;25175;50.140;18.990;2022-11-12T18:46:25;103.15;;;45.75;;
39490;SDS011;25175;50.140;18.990;2022-11-12T18:49:45;112.40;;;45.75;;
39490;SDS011;25175;50.140;18.990;2022-11-12T18:53:07;113.55;;;50.88;;
39490;SDS011;25175;50.140;18.990;2022-11-12T18:56:27;124.95;;;50.97;;
39490;SDS011;25175;50.140;18.990;2022-11-12T18:59:47;107.03;;;46.03;;
39490;SDS011;25175;50.140;18.990;2022-11-12T19:03:09;112.45;;;48.47;;
39490;SDS011;25175;50.140;18.990;2022-11-12T19:06:30;109.63;;;48.25;;
39490;SDS011;25175;50.140;18.990;2022-11-12T19:09:52;128.45;;;56.25;;
39490;SDS011;25175;50.140;18.990;2022-11-12T19:13:13;129.95;;;58.20;;
39490;SDS011;25175;50.140;18.990;2022-11-12T19:16:34;121.88;;;53.88;;
39490;SDS011;25175;50.140;18.990;2022-11-12T19:19:55;112.35;;;52.58;;
39490;SDS011;25175;50.140;18.990;2022-11-12T19:23:15;124.10;;;53.53;;
39490;SDS011;25175;50.140;18.990;2022-11-12T19:26:37;123.75;;;52.35;;
39490;SDS011;25175;50.140;18.990;2022-11-12T19:29:58;124.32;;;52.92;;
39490;SDS011;25175;50.140;18.990;2022-11-12T19:33:19;116.55;;;52.35;;
39490;SDS011;25175;50.140;18.990;2022-11-12T19:36:40;112.57;;;52.55;;
39490;SDS011;25175;50.140;18.990;2022-11-12T19:40:01;127.55;;;56.05;;
39490;SDS011;25175;50.140;18.990;2022-11-12T19:43:24;132.07;;;56.90;;
39490;SDS011;25175;50.140;18.990;2022-11-12T19:46:44;142.57;;;59.83;;
39490;SDS011;25175;50.140;18.990;2022-11-12T19:50:05;132.55;;;58.17;;
39490;SDS011;25175;50.140;18.990;2022-11-12T19:53:28;155.00;;;65.43;;